createdAt,value
2022-09-12T00:01:51.576Z,15.30
2022-09-12T00:04:18.613Z,15.30
2022-09-12T00:06:45.293Z,15.40
2022-09-12T00:09:14.078Z,15.30
2022-09-12T00:11:45.864Z,15.20
2022-09-12T00:14:16.106Z,15.10
2022-09-12T00:16:43.679Z,15.00
2022-09-12T00:19:11.850Z,14.90
2022-09-12T00:21:40.487Z,14.80
2022-09-12T00:24:07.887Z,14.90
2022-09-12T00:26:34.629Z,15.10
2022-09-12T00:29:01.392Z,15.20
2022-09-12T00:31:28.514Z,15.30
2022-09-12T00:33:58.099Z,15.30
2022-09-12T00:36:25.798Z,15.30
2022-09-12T00:38:54.455Z,15.40
2022-09-12T00:41:27.537Z,15.40
2022-09-12T00:43:59.153Z,15.50
2022-09-12T00:47:05.997Z,15.50
2022-09-12T00:49:41.291Z,15.40
2022-09-12T00:52:09.903Z,15.50
2022-09-12T00:54:42.729Z,15.60
2022-09-12T00:57:13.123Z,15.60
2022-09-12T00:59:46.632Z,15.60
2022-09-12T01:02:13.493Z,15.60
2022-09-12T01:04:42.159Z,15.50
2022-09-12T01:07:09.517Z,15.40
2022-09-12T01:09:36.736Z,15.50
2022-09-12T01:12:05.072Z,15.50
2022-09-12T01:14:32.511Z,15.60
2022-09-12T01:16:59.432Z,15.60
2022-09-12T01:19:28.879Z,15.50
2022-09-12T01:22:10.618Z,15.50
2022-09-12T01:24:58.998Z,15.60
2022-09-12T01:28:07.851Z,15.60
2022-09-12T01:31:03.362Z,15.60
2022-09-12T01:33:39.732Z,15.70
2022-09-12T01:36:38.360Z,15.70
2022-09-12T01:39:26.775Z,15.70
2022-09-12T01:42:17.973Z,15.60
2022-09-12T01:45:03.425Z,15.50
2022-09-12T01:47:47.446Z,15.50
2022-09-12T01:50:27.641Z,15.50
2022-09-12T01:53:04.696Z,15.40
2022-09-12T01:55:41.250Z,15.30
2022-09-12T01:58:37.202Z,15.20
2022-09-12T02:01:07.755Z,15.20
2022-09-12T02:03:44.991Z,15.00
2022-09-12T02:06:20.911Z,14.90
2022-09-12T02:08:54.435Z,14.90
2022-09-12T02:11:21.968Z,15.00
2022-09-12T02:13:56.553Z,14.70
2022-09-12T02:16:35.252Z,14.60
2022-09-12T02:19:19.802Z,14.60
2022-09-12T02:21:59.238Z,14.60
2022-09-12T02:24:33.188Z,14.40
2022-09-12T02:27:37.738Z,14.40
2022-09-12T02:30:06.557Z,14.40
2022-09-12T02:32:56.345Z,14.40
2022-09-12T02:35:28.202Z,14.50
2022-09-12T02:38:00.324Z,14.50
2022-09-12T02:40:27.782Z,14.60
2022-09-12T02:42:54.547Z,14.60
2022-09-12T02:45:23.447Z,14.50
2022-09-12T02:48:02.201Z,14.30
2022-09-12T02:50:29.182Z,14.20
2022-09-12T02:52:59.809Z,14.20
2022-09-12T02:55:30.335Z,14.40
2022-09-12T02:57:57.187Z,14.40
2022-09-12T03:00:25.080Z,14.30
2022-09-12T03:03:19.911Z,14.20
2022-09-12T03:06:12.277Z,14.10
2022-09-12T03:08:50.959Z,14.10
2022-09-12T03:11:20.788Z,14.20
2022-09-12T03:13:50.191Z,14.40
2022-09-12T03:16:46.946Z,14.40
2022-09-12T03:19:29.552Z,14.50
2022-09-12T03:22:18.220Z,14.50
2022-09-12T03:25:04.017Z,14.50
2022-09-12T03:27:36.287Z,14.40
2022-09-12T03:30:05.810Z,14.40
2022-09-12T03:32:45.457Z,14.40
2022-09-12T03:35:13.478Z,14.50
2022-09-12T03:37:40.616Z,14.50
2022-09-12T03:40:08.792Z,14.60
2022-09-12T03:42:35.591Z,14.60
2022-09-12T03:45:02.416Z,14.50
2022-09-12T03:47:29.256Z,14.40
2022-09-12T03:49:55.973Z,14.40
2022-09-12T03:52:23.092Z,14.40
2022-09-12T03:54:49.871Z,14.20
2022-09-12T03:57:16.722Z,14.20
2022-09-12T03:59:43.458Z,14.10
2022-09-12T04:02:12.969Z,14.10
2022-09-12T04:04:43.151Z,14.10
2022-09-12T04:07:11.256Z,14.10
2022-09-12T04:09:38.288Z,14.20
2022-09-12T04:12:05.548Z,14.30
2022-09-12T04:14:32.232Z,14.30
2022-09-12T04:16:58.914Z,14.40
2022-09-12T04:19:26.694Z,14.40
2022-09-12T04:21:53.585Z,14.40
2022-09-12T04:24:20.310Z,14.30
2022-09-12T04:26:47.128Z,14.20
2022-09-12T04:29:15.016Z,14.20
2022-09-12T04:31:42.604Z,14.30
2022-09-12T04:34:09.697Z,14.30
2022-09-12T04:36:36.754Z,14.40
2022-09-12T04:39:04.793Z,14.30
2022-09-12T04:41:37.462Z,14.30
2022-09-12T04:44:10.748Z,14.40
2022-09-12T04:46:42.984Z,14.40
2022-09-12T04:49:09.983Z,14.50
2022-09-12T04:51:38.652Z,14.40
2022-09-12T04:54:08.297Z,14.40
2022-09-12T04:56:38.732Z,14.40
2022-09-12T04:59:05.665Z,14.30
2022-09-12T05:01:32.692Z,14.30
2022-09-12T05:04:00.022Z,14.20
2022-09-12T05:06:32.416Z,14.30
2022-09-12T05:09:00.590Z,14.30
2022-09-12T05:11:46.795Z,14.10
2022-09-12T05:14:16.901Z,14.10
2022-09-12T05:16:47.272Z,14.20
2022-09-12T05:19:16.075Z,14.20
2022-09-12T05:21:42.751Z,14.00
2022-09-12T05:24:11.360Z,14.10
2022-09-12T05:26:38.670Z,14.10
2022-09-12T05:29:07.141Z,14.20
2022-09-12T05:31:34.717Z,14.10
2022-09-12T05:34:01.770Z,14.10
2022-09-12T05:36:30.467Z,14.10
2022-09-12T05:38:59.602Z,14.10
2022-09-12T05:41:31.633Z,13.90
2022-09-12T05:44:00.314Z,14.00
2022-09-12T05:46:29.455Z,14.10
2022-09-12T05:48:57.085Z,14.20
2022-09-12T05:51:26.637Z,14.20
2022-09-12T05:53:57.893Z,14.30
2022-09-12T05:56:27.693Z,14.30
2022-09-12T05:59:00.130Z,14.40
2022-09-12T06:01:28.615Z,14.50
2022-09-12T06:04:00.620Z,14.60
2022-09-12T06:06:28.635Z,14.70
2022-09-12T06:09:01.873Z,14.70
2022-09-12T06:11:31.152Z,14.70
2022-09-12T06:13:58.752Z,14.70
2022-09-12T06:16:30.517Z,14.70
2022-09-12T06:19:00.238Z,14.70
2022-09-12T06:21:27.325Z,14.70
2022-09-12T06:24:00.808Z,14.80
2022-09-12T06:26:29.173Z,14.80
2022-09-12T06:28:57.460Z,14.90
2022-09-12T06:31:27.042Z,14.90
2022-09-12T06:33:55.018Z,14.90
2022-09-12T06:36:24.680Z,14.90
2022-09-12T06:38:57.192Z,14.90
2022-09-12T06:41:25.211Z,14.90
2022-09-12T06:43:52.186Z,14.90
2022-09-12T06:46:19.651Z,14.90
2022-09-12T06:48:46.556Z,14.90
2022-09-12T06:51:16.436Z,15.00
2022-09-12T06:53:44.484Z,15.00
2022-09-12T06:56:15.704Z,15.00
2022-09-12T06:58:43.470Z,15.10
2022-09-12T07:01:13.566Z,15.00
2022-09-12T07:03:40.297Z,15.00
2022-09-12T07:06:09.443Z,15.10
2022-09-12T07:08:37.381Z,15.10
2022-09-12T07:11:25.574Z,15.10
2022-09-12T07:13:56.302Z,15.20
2022-09-12T07:16:23.894Z,15.30
2022-09-12T07:18:55.985Z,15.40
2022-09-12T07:21:23.149Z,15.40
2022-09-12T07:23:51.926Z,15.50
2022-09-12T07:26:18.831Z,15.60
2022-09-12T07:28:45.754Z,15.80
2022-09-12T07:31:15.151Z,15.80
2022-09-12T07:33:43.047Z,15.80
2022-09-12T07:36:18.797Z,15.90
2022-09-12T07:38:46.514Z,15.90
2022-09-12T07:41:17.258Z,16.10
2022-09-12T07:43:44.081Z,16.10
2022-09-12T07:46:14.903Z,16.20
2022-09-12T07:48:41.640Z,16.30
2022-09-12T07:51:10.816Z,16.40
2022-09-12T07:53:43.294Z,16.50
2022-09-12T07:56:11.390Z,16.50
2022-09-12T07:58:39.120Z,16.70
2022-09-12T08:01:13.125Z,16.70
2022-09-12T08:03:45.035Z,16.80
2022-09-12T08:06:14.660Z,16.90
2022-09-12T08:08:42.513Z,16.90
2022-09-12T08:11:12.318Z,16.90
2022-09-12T08:13:40.625Z,17.10
2022-09-12T08:16:11.981Z,17.20
2022-09-12T08:18:39.385Z,17.30
2022-09-12T08:21:08.539Z,17.40
2022-09-12T08:23:35.276Z,17.40
2022-09-12T08:26:06.151Z,17.50
2022-09-12T08:28:35.015Z,17.70
2022-09-12T08:31:07.231Z,17.70
2022-09-12T08:33:34.682Z,17.80
2022-09-12T08:36:10.841Z,17.90
2022-09-12T08:38:41.220Z,18.00
2022-09-12T08:41:30.297Z,18.10
2022-09-12T08:44:34.965Z,18.20
2022-09-12T08:47:13.448Z,18.10
2022-09-12T08:50:10.454Z,17.90
2022-09-12T08:52:56.686Z,17.90
2022-09-12T08:55:32.276Z,17.80
2022-09-12T08:58:01.446Z,17.80
2022-09-12T09:00:40.471Z,17.70
2022-09-12T09:03:44.298Z,17.80
2022-09-12T09:06:37.590Z,18.00
2022-09-12T09:09:40.618Z,18.00
2022-09-12T09:12:40.469Z,18.10
2022-09-12T09:15:31.646Z,18.30
2022-09-12T09:18:08.735Z,18.50
2022-09-12T09:21:06.321Z,18.50
2022-09-12T09:23:40.878Z,18.60
2022-09-12T09:26:17.327Z,18.90
2022-09-12T09:29:20.761Z,19.10
2022-09-12T09:31:54.392Z,19.10
2022-09-12T09:34:26.750Z,19.30
2022-09-12T09:37:05.829Z,19.30
2022-09-12T09:40:00.762Z,19.50
2022-09-12T09:42:53.939Z,19.50
2022-09-12T09:45:24.378Z,19.60
2022-09-12T09:47:57.161Z,19.80
2022-09-12T09:50:24.868Z,20.00
2022-09-12T09:52:54.473Z,20.20
2022-09-12T09:55:26.115Z,20.30
2022-09-12T09:57:53.294Z,20.50
2022-09-12T10:00:32.130Z,20.70
2022-09-12T10:03:04.912Z,20.80
2022-09-12T10:05:35.771Z,21.00
2022-09-12T10:08:04.300Z,21.00
2022-09-12T10:10:31.008Z,21.00
2022-09-12T10:13:25.422Z,21.30
2022-09-12T10:16:22.594Z,21.40
2022-09-12T10:18:52.352Z,21.40
2022-09-12T10:21:32.795Z,21.50
2022-09-12T10:24:04.244Z,21.50
2022-09-12T10:26:38.723Z,21.70
2022-09-12T10:29:14.891Z,21.80
2022-09-12T10:31:51.735Z,21.90
2022-09-12T10:34:32.440Z,22.00
2022-09-12T10:37:04.385Z,22.10
2022-09-12T10:39:32.444Z,22.30
2022-09-12T10:41:59.280Z,22.50
2022-09-12T10:44:28.928Z,22.60
2022-09-12T10:46:56.855Z,22.70
2022-09-12T10:49:29.887Z,22.80
2022-09-12T10:51:59.676Z,22.90
2022-09-12T10:54:27.904Z,23.00
2022-09-12T10:57:13.176Z,22.90
2022-09-12T11:00:27.985Z,23.10
2022-09-12T11:02:59.212Z,23.40
2022-09-12T11:05:56.496Z,23.70
2022-09-12T11:08:36.574Z,23.70
2022-09-12T11:11:26.801Z,23.70
2022-09-12T11:14:10.660Z,24.10
2022-09-12T11:16:52.222Z,24.70
2022-09-12T11:19:24.872Z,25.00
2022-09-12T11:22:19.360Z,25.20
2022-09-12T11:25:05.089Z,25.60
2022-09-12T11:27:42.905Z,25.50
2022-09-12T11:30:16.028Z,25.60
2022-09-12T11:33:05.596Z,25.50
2022-09-12T11:35:54.421Z,25.10
2022-09-12T11:38:49.877Z,24.60
2022-09-12T11:41:28.746Z,24.40
2022-09-12T11:44:11.439Z,24.30
2022-09-12T11:46:39.750Z,24.30
2022-09-12T11:49:09.545Z,24.20
2022-09-12T11:52:03.246Z,24.10
2022-09-12T11:54:38.224Z,24.00
2022-09-12T11:57:18.571Z,24.00
2022-09-12T11:59:58.210Z,24.20
2022-09-12T12:02:30.905Z,24.30
2022-09-12T12:05:09.397Z,24.20
2022-09-12T12:07:45.537Z,24.10
2022-09-12T12:10:32.491Z,23.90
2022-09-12T12:13:01.959Z,23.80
2022-09-12T12:15:30.730Z,23.90
2022-09-12T12:18:07.606Z,23.80
2022-09-12T12:20:35.116Z,23.80
2022-09-12T12:23:01.924Z,23.70
2022-09-12T12:25:52.845Z,23.60
2022-09-12T12:28:41.215Z,23.60
2022-09-12T12:31:09.858Z,23.60
2022-09-12T12:33:39.503Z,23.60
2022-09-12T12:36:09.308Z,23.60
2022-09-12T12:38:38.288Z,23.70
2022-09-12T12:41:17.405Z,23.60
2022-09-12T12:43:46.799Z,23.60
2022-09-12T12:46:15.679Z,23.60
2022-09-12T12:49:03.705Z,23.60
2022-09-12T12:51:49.440Z,23.60
2022-09-12T12:54:29.585Z,23.60
2022-09-12T12:57:27.115Z,23.60
2022-09-12T13:00:06.972Z,23.70
2022-09-12T13:02:38.634Z,23.60
2022-09-12T13:05:17.400Z,23.60
2022-09-12T13:07:44.927Z,23.60
2022-09-12T13:10:32.080Z,23.70
2022-09-12T13:13:03.335Z,23.70
2022-09-12T13:15:36.288Z,23.70
2022-09-12T13:18:11.189Z,23.70
2022-09-12T13:21:10.206Z,23.60
2022-09-12T13:23:36.980Z,23.60
2022-09-12T13:26:14.261Z,23.60
2022-09-12T13:28:41.033Z,23.60
2022-09-12T13:31:25.969Z,23.50
2022-09-12T13:33:59.894Z,23.50
2022-09-12T13:36:32.602Z,23.50
2022-09-12T13:39:20.124Z,23.60
2022-09-12T13:42:16.556Z,23.60
2022-09-12T13:44:52.839Z,23.60
2022-09-12T13:47:41.186Z,23.60
2022-09-12T13:50:14.082Z,23.70
2022-09-12T13:52:45.425Z,23.70
2022-09-12T13:55:29.187Z,23.60
2022-09-12T13:58:13.986Z,23.60
2022-09-12T14:00:40.704Z,23.60
2022-09-12T14:04:06.958Z,23.70
2022-09-12T14:06:50.069Z,23.60
2022-09-12T14:09:31.166Z,23.50
2022-09-12T14:11:58.782Z,23.60
2022-09-12T14:14:36.573Z,23.60
2022-09-12T14:17:18.943Z,23.60
2022-09-12T14:19:49.274Z,23.50
2022-09-12T14:22:17.959Z,23.50
2022-09-12T14:24:51.605Z,23.40
2022-09-12T14:27:26.737Z,23.40
2022-09-12T14:30:09.267Z,23.30
2022-09-12T14:32:36.223Z,23.20
2022-09-12T14:35:27.290Z,23.10
2022-09-12T14:37:53.992Z,23.00
2022-09-12T14:40:23.550Z,23.00
2022-09-12T14:42:52.767Z,22.90
2022-09-12T14:45:32.244Z,22.80
2022-09-12T14:47:59.420Z,22.70
2022-09-12T14:50:29.659Z,22.70
2022-09-12T14:53:07.906Z,22.70
2022-09-12T14:55:42.113Z,22.70
2022-09-12T14:58:21.046Z,22.70
2022-09-12T15:01:15.646Z,22.60
2022-09-12T15:03:49.523Z,22.60
2022-09-12T15:06:27.452Z,22.60
2022-09-12T15:08:55.875Z,22.50
2022-09-12T15:11:22.774Z,22.40
2022-09-12T15:13:49.764Z,22.30
2022-09-12T15:16:16.674Z,22.30
2022-09-12T15:18:43.784Z,22.10
2022-09-12T15:21:16.374Z,22.10
2022-09-12T15:23:46.669Z,22.00
2022-09-12T15:26:18.377Z,22.00
2022-09-12T15:28:45.579Z,21.90
2022-09-12T15:31:32.908Z,21.90
2022-09-12T15:34:01.489Z,21.80
2022-09-12T15:36:29.186Z,21.80
2022-09-12T15:38:56.386Z,21.80
2022-09-12T15:41:35.577Z,21.70
2022-09-12T15:44:08.062Z,21.70
2022-09-12T15:46:34.862Z,21.60
2022-09-12T15:49:01.920Z,21.60
2022-09-12T15:51:29.116Z,21.60
2022-09-12T15:53:55.925Z,21.60
2022-09-12T15:56:22.914Z,21.50
2022-09-12T15:59:05.196Z,21.50
2022-09-12T16:01:31.987Z,21.50
2022-09-12T16:03:58.718Z,21.40
2022-09-12T16:06:25.477Z,21.40
2022-09-12T16:08:52.248Z,21.40
2022-09-12T16:11:24.230Z,21.30
2022-09-12T16:13:52.914Z,21.30
2022-09-12T16:16:19.898Z,21.20
2022-09-12T16:18:46.832Z,21.20
2022-09-12T16:21:15.437Z,21.10
2022-09-12T16:23:43.700Z,21.10
2022-09-12T16:26:10.437Z,21.10
2022-09-12T16:28:37.323Z,21.00
2022-09-12T16:31:06.275Z,21.00
2022-09-12T16:33:34.159Z,21.00
2022-09-12T16:36:03.410Z,21.00
2022-09-12T16:38:30.559Z,20.90
2022-09-12T16:41:05.567Z,20.80
2022-09-12T16:43:33.982Z,20.80
2022-09-12T16:46:16.015Z,20.80
2022-09-12T16:48:50.926Z,20.80
2022-09-12T16:51:20.800Z,20.70
2022-09-12T16:53:48.709Z,20.70
2022-09-12T16:56:15.595Z,20.70
2022-09-12T16:58:43.535Z,20.60
2022-09-12T17:01:22.283Z,20.60
2022-09-12T17:03:53.086Z,20.60
2022-09-12T17:06:20.033Z,20.60
2022-09-12T17:08:51.489Z,20.50
2022-09-12T17:11:30.486Z,20.60
2022-09-12T17:14:06.986Z,20.50
2022-09-12T17:16:39.582Z,20.50
2022-09-12T17:19:06.990Z,20.40
2022-09-12T17:21:34.137Z,20.30
2022-09-12T17:24:01.229Z,20.30
2022-09-12T17:26:27.891Z,20.30
2022-09-12T17:28:54.705Z,20.20
2022-09-12T17:31:21.499Z,20.20
2022-09-12T17:33:48.354Z,20.10
2022-09-12T17:36:17.771Z,20.10
2022-09-12T17:38:46.065Z,20.00
2022-09-12T17:41:17.571Z,19.90
2022-09-12T17:43:46.342Z,19.80
2022-09-12T17:46:13.462Z,19.80
2022-09-12T17:48:40.267Z,19.70
2022-09-12T17:51:12.170Z,19.60
2022-09-12T17:53:39.171Z,19.60
2022-09-12T17:56:07.089Z,19.50
2022-09-12T17:58:34.917Z,19.50
2022-09-12T18:01:22.917Z,19.40
2022-09-12T18:03:50.674Z,19.30
2022-09-12T18:06:17.411Z,19.30
2022-09-12T18:08:44.133Z,19.20
2022-09-12T18:11:10.810Z,19.20
2022-09-12T18:13:37.562Z,19.10
2022-09-12T18:16:09.679Z,19.00
2022-09-12T18:18:37.175Z,19.00
2022-09-12T18:21:05.771Z,18.90
2022-09-12T18:23:33.371Z,18.80
2022-09-12T18:26:10.408Z,18.80
2022-09-12T18:28:39.780Z,18.70
2022-09-12T18:31:13.232Z,18.70
2022-09-12T18:33:40.525Z,18.60
2022-09-12T18:36:09.602Z,18.60
2022-09-12T18:38:36.641Z,18.50
2022-09-12T18:41:05.305Z,18.50
2022-09-12T18:43:32.476Z,18.50
2022-09-12T18:46:14.216Z,18.50
2022-09-12T18:48:41.144Z,18.40
2022-09-12T18:51:18.986Z,18.40
2022-09-12T18:53:54.710Z,18.30
2022-09-12T18:56:23.212Z,18.30
2022-09-12T18:58:54.900Z,18.30
2022-09-12T19:01:24.101Z,18.30
2022-09-12T19:03:52.260Z,18.20
2022-09-12T19:06:20.686Z,18.20
2022-09-12T19:08:48.959Z,18.20
2022-09-12T19:11:15.998Z,18.10
2022-09-12T19:13:44.882Z,18.10
2022-09-12T19:16:15.043Z,18.00
2022-09-12T19:18:42.336Z,18.00
2022-09-12T19:21:22.150Z,17.90
2022-09-12T19:23:49.617Z,17.80
2022-09-12T19:26:17.670Z,17.80
2022-09-12T19:28:45.362Z,17.80
2022-09-12T19:31:15.126Z,17.80
2022-09-12T19:33:42.451Z,17.70
2022-09-12T19:36:27.655Z,17.70
2022-09-12T19:38:59.998Z,17.70
2022-09-12T19:41:27.093Z,17.70
2022-09-12T19:43:56.154Z,17.70
2022-09-12T19:46:24.573Z,17.60
2022-09-12T19:48:52.630Z,17.60
2022-09-12T19:51:20.748Z,17.60
2022-09-12T19:53:50.152Z,17.50
2022-09-12T19:56:17.109Z,17.50
2022-09-12T19:58:46.607Z,17.50
2022-09-12T20:01:16.095Z,17.50
2022-09-12T20:03:44.686Z,17.30
2022-09-12T20:06:18.045Z,17.30
2022-09-12T20:08:45.836Z,17.30
2022-09-12T20:11:15.236Z,17.30
2022-09-12T20:13:41.991Z,17.30
2022-09-12T20:16:11.034Z,17.30
2022-09-12T20:18:38.663Z,17.20
2022-09-12T20:21:09.308Z,17.20
2022-09-12T20:23:36.069Z,17.10
2022-09-12T20:26:04.312Z,17.10
2022-09-12T20:28:31.783Z,17.10
2022-09-12T20:31:04.408Z,17.10
2022-09-12T20:33:31.929Z,17.00
2022-09-12T20:36:19.243Z,17.00
2022-09-12T20:38:54.002Z,16.90
2022-09-12T20:41:21.309Z,16.90
2022-09-12T20:43:52.193Z,16.90
2022-09-12T20:46:21.856Z,16.80
2022-09-12T20:48:49.505Z,16.80
2022-09-12T20:51:16.762Z,16.80
2022-09-12T20:53:43.417Z,16.80
2022-09-12T20:56:10.370Z,16.80
2022-09-12T20:58:41.645Z,16.70
2022-09-12T21:01:14.231Z,16.70
2022-09-12T21:03:42.806Z,16.70
2022-09-12T21:06:10.799Z,16.70
2022-09-12T21:08:37.732Z,16.70
2022-09-12T21:11:05.638Z,16.70
2022-09-12T21:13:32.623Z,16.60
2022-09-12T21:16:10.592Z,16.60
2022-09-12T21:18:37.612Z,16.60
2022-09-12T21:21:05.406Z,16.60
2022-09-12T21:23:32.817Z,16.60
2022-09-12T21:25:59.999Z,16.60
2022-09-12T21:28:26.895Z,16.60
2022-09-12T21:30:53.714Z,16.50
2022-09-12T21:33:21.218Z,16.50
2022-09-12T21:35:48.980Z,16.50
2022-09-12T21:38:16.647Z,16.40
2022-09-12T21:40:43.570Z,16.40
2022-09-12T21:43:12.729Z,16.40
2022-09-12T21:45:40.424Z,16.30
2022-09-12T21:48:07.572Z,16.30
2022-09-12T21:50:34.828Z,16.40
2022-09-12T21:53:01.556Z,16.30
2022-09-12T21:55:28.231Z,16.30
2022-09-12T21:57:55.206Z,16.20
2022-09-12T22:00:22.686Z,16.20
2022-09-12T22:02:49.808Z,16.20
2022-09-12T22:05:17.286Z,16.10
2022-09-12T22:07:44.265Z,16.10
2022-09-12T22:10:11.099Z,16.00
2022-09-12T22:12:38.687Z,16.00
2022-09-12T22:15:29.142Z,16.00
2022-09-12T22:17:54.036Z,16.00
2022-09-12T22:20:20.738Z,15.90
2022-09-12T22:23:06.041Z,15.90
2022-09-12T22:25:32.805Z,15.90
2022-09-12T22:27:59.790Z,15.90
2022-09-12T22:30:27.310Z,15.90
2022-09-12T22:32:54.056Z,15.90
2022-09-12T22:35:20.990Z,15.80
2022-09-12T22:37:48.119Z,15.80
2022-09-12T22:40:15.626Z,15.70
2022-09-12T22:42:42.496Z,15.70
2022-09-12T22:45:09.693Z,15.70
2022-09-12T22:47:36.411Z,15.60
2022-09-12T22:50:03.492Z,15.60
2022-09-12T22:52:30.389Z,15.60
2022-09-12T22:54:57.255Z,15.60
2022-09-12T22:57:24.033Z,15.50
2022-09-12T22:59:50.870Z,15.60
2022-09-12T23:02:17.655Z,15.50
2022-09-12T23:04:44.350Z,15.50
2022-09-12T23:07:11.051Z,15.50
2022-09-12T23:09:37.833Z,15.40
2022-09-12T23:12:04.611Z,15.50
2022-09-12T23:14:31.369Z,15.50
2022-09-12T23:16:58.106Z,15.40
2022-09-12T23:19:24.827Z,15.40
2022-09-12T23:21:51.506Z,15.40
2022-09-12T23:24:18.295Z,15.40
2022-09-12T23:26:44.963Z,15.30
2022-09-12T23:29:11.655Z,15.30
2022-09-12T23:31:38.417Z,15.20
2022-09-12T23:34:06.223Z,15.20
2022-09-12T23:36:33.647Z,15.20
2022-09-12T23:39:00.546Z,15.10
2022-09-12T23:41:27.399Z,15.20
2022-09-12T23:43:54.413Z,15.20
2022-09-12T23:46:21.663Z,15.20
2022-09-12T23:48:48.510Z,15.20
2022-09-12T23:51:15.669Z,15.20
2022-09-12T23:53:42.373Z,15.10
2022-09-12T23:56:09.431Z,15.10
2022-09-12T23:58:36.468Z,15.10
